Time;durP1;ratioP1;P1;durP2;ratioP2;P2;SDS_P1;SDS_P2;PMS_P1;PMS_P2;Temp;Humidity;BMP_temperature;BMP_pressure;BME280_temperature;BME280_humidity;BME280_pressure;Samples;Min_cycle;Max_cycle;Signal;HPM_P1;HPM_P2
2023/03/19 00:00:36;;;;;;;33.87;24.97;;;;;;;;;;4994317;28;20461;-68
2023/03/19 00:03:05;;;;;;;37.33;26.70;;;;;;;;;;4996596;28;20447;-66
2023/03/19 00:05:32;;;;;;;30.53;26.73;;;;;;;;;;4994792;28;20459;-67
2023/03/19 00:07:59;;;;;;;31.92;26.15;;;;;;;;;;4994830;28;20476;-66
2023/03/19 00:10:27;;;;;;;36.10;24.57;;;;;;;;;;4995395;28;20193;-66
2023/03/19 00:12:54;;;;;;;31.93;24.63;;;;;;;;;;4994718;28;20448;-66
2023/03/19 00:15:21;;;;;;;29.60;25.13;;;;;;;;;;4995117;28;20925;-66
2023/03/19 00:17:48;;;;;;;32.40;26.00;;;;;;;;;;4994637;28;20543;-66
2023/03/19 00:20:19;;;;;;;35.22;26.83;;;;;;;;;;4994517;28;20440;-66
2023/03/19 00:22:46;;;;;;;30.07;23.47;;;;;;;;;;4994709;28;20207;-66
2023/03/19 00:25:13;;;;;;;32.83;23.77;;;;;;;;;;4994727;28;20802;-67
2023/03/19 00:27:41;;;;;;;28.00;23.37;;;;;;;;;;4994038;28;20928;-66
2023/03/19 00:30:08;;;;;;;32.03;25.10;;;;;;;;;;4994362;28;20448;-68
2023/03/19 00:32:36;;;;;;;28.03;23.03;;;;;;;;;;4994641;28;20439;-66
2023/03/19 00:35:05;;;;;;;29.03;23.63;;;;;;;;;;4994292;28;20484;-66
2023/03/19 00:37:33;;;;;;;26.37;22.07;;;;;;;;;;4994300;28;20492;-66
2023/03/19 00:40:00;;;;;;;23.63;20.83;;;;;;;;;;4994002;28;20451;-67
2023/03/19 00:42:27;;;;;;;32.00;23.10;;;;;;;;;;4994234;28;20531;-67
2023/03/19 00:44:55;;;;;;;28.00;20.87;;;;;;;;;;4994085;28;20455;-67
2023/03/19 00:47:22;;;;;;;24.13;19.77;;;;;;;;;;4994132;28;20550;-66
2023/03/19 00:49:50;;;;;;;24.92;18.48;;;;;;;;;;4994199;28;20444;-66
2023/03/19 00:52:17;;;;;;;20.25;17.77;;;;;;;;;;4993772;28;20228;-67
2023/03/19 00:54:46;;;;;;;32.63;24.00;;;;;;;;;;4994164;28;20646;-67
2023/03/19 00:57:13;;;;;;;21.23;18.93;;;;;;;;;;4994117;28;20448;-66
2023/03/19 00:59:40;;;;;;;20.10;17.13;;;;;;;;;;4994314;28;20444;-66
2023/03/19 01:02:07;;;;;;;17.57;15.23;;;;;;;;;;4995859;28;20949;-67
2023/03/19 01:04:34;;;;;;;18.67;16.00;;;;;;;;;;4994554;28;20571;-67
2023/03/19 01:07:01;;;;;;;23.37;17.87;;;;;;;;;;4993850;28;20455;-67
2023/03/19 01:09:29;;;;;;;22.77;16.87;;;;;;;;;;4995103;28;20464;-67
2023/03/19 01:11:57;;;;;;;19.87;16.00;;;;;;;;;;4993921;28;20470;-66
2023/03/19 01:14:25;;;;;;;17.30;15.40;;;;;;;;;;4993943;28;20448;-66
2023/03/19 01:16:52;;;;;;;18.80;15.80;;;;;;;;;;4994135;28;20470;-66
2023/03/19 01:19:20;;;;;;;16.83;15.03;;;;;;;;;;4994123;28;20450;-66
2023/03/19 01:21:48;;;;;;;18.47;16.27;;;;;;;;;;4993986;28;20490;-66
2023/03/19 01:24:15;;;;;;;18.47;15.87;;;;;;;;;;4994187;28;20487;-66
2023/03/19 01:26:43;;;;;;;20.03;15.30;;;;;;;;;;4993357;28;20452;-67
2023/03/19 01:29:12;;;;;;;15.93;14.10;;;;;;;;;;4993492;28;20487;-66
2023/03/19 01:31:39;;;;;;;20.27;15.77;;;;;;;;;;4993679;28;20251;-66
2023/03/19 01:34:06;;;;;;;16.70;14.93;;;;;;;;;;4993591;28;20445;-67
2023/03/19 01:36:33;;;;;;;18.40;16.37;;;;;;;;;;4994165;28;20461;-66
2023/03/19 01:39:00;;;;;;;19.40;16.03;;;;;;;;;;4993731;28;20452;-66
2023/03/19 01:41:28;;;;;;;16.60;14.80;;;;;;;;;;4993818;28;20539;-66
2023/03/19 01:43:55;;;;;;;15.67;13.97;;;;;;;;;;4993689;28;20455;-66
2023/03/19 01:46:27;;;;;;;16.90;14.53;;;;;;;;;;4993601;28;20444;-66
2023/03/19 01:48:57;;;;;;;19.27;14.93;;;;;;;;;;4993339;28;20463;-66
2023/03/19 01:51:25;;;;;;;18.25;14.88;;;;;;;;;;4993440;28;20456;-66
2023/03/19 01:53:54;;;;;;;18.13;16.30;;;;;;;;;;4993695;28;20201;-67
2023/03/19 01:56:23;;;;;;;19.77;14.23;;;;;;;;;;4993685;28;20448;-66
2023/03/19 01:58:51;;;;;;;23.17;14.20;;;;;;;;;;4998147;28;20445;-66
2023/03/19 02:01:19;;;;;;;19.50;16.17;;;;;;;;;;4999291;28;20468;-68
2023/03/19 02:03:47;;;;;;;15.50;13.90;;;;;;;;;;4997144;28;20448;-66
2023/03/19 02:06:15;;;;;;;17.90;15.17;;;;;;;;;;4997233;28;20467;-66
2023/03/19 02:08:43;;;;;;;16.13;14.47;;;;;;;;;;4998184;28;20503;-66
2023/03/19 02:11:10;;;;;;;21.83;15.00;;;;;;;;;;4996974;28;20471;-67
2023/03/19 02:13:38;;;;;;;18.30;15.83;;;;;;;;;;4996508;28;20466;-67
2023/03/19 02:16:06;;;;;;;23.70;15.17;;;;;;;;;;4996799;28;20445;-67
2023/03/19 02:18:33;;;;;;;17.40;14.63;;;;;;;;;;4996405;28;20448;-66
2023/03/19 02:21:04;;;;;;;22.93;16.30;;;;;;;;;;4997376;28;20550;-67
2023/03/19 02:23:35;;;;;;;18.07;15.70;;;;;;;;;;5011521;28;20436;-66
2023/03/19 02:26:06;;;;;;;15.70;13.60;;;;;;;;;;5016967;28;20487;-66
2023/03/19 02:28:34;;;;;;;19.03;14.70;;;;;;;;;;5016169;28;20514;-67
2023/03/19 02:31:01;;;;;;;18.27;14.17;;;;;;;;;;5016645;28;20462;-66
2023/03/19 02:33:29;;;;;;;18.13;14.50;;;;;;;;;;5015910;28;20542;-67
2023/03/19 02:35:57;;;;;;;13.97;12.57;;;;;;;;;;5016061;28;20478;-66
2023/03/19 02:38:25;;;;;;;15.40;13.73;;;;;;;;;;5015962;28;20448;-68
2023/03/19 02:40:54;;;;;;;21.00;13.30;;;;;;;;;;5016312;28;20444;-66
2023/03/19 02:43:23;;;;;;;15.73;12.67;;;;;;;;;;5016262;28;20454;-66
2023/03/19 02:45:50;;;;;;;13.10;11.63;;;;;;;;;;5015879;28;20451;-67
2023/03/19 02:48:18;;;;;;;13.90;11.63;;;;;;;;;;5016123;28;20491;-66
2023/03/19 02:50:45;;;;;;;12.20;10.93;;;;;;;;;;5016413;28;20444;-66
2023/03/19 02:53:13;;;;;;;13.70;11.60;;;;;;;;;;5015623;28;20454;-66
2023/03/19 02:55:40;;;;;;;11.40;10.33;;;;;;;;;;5016073;28;20451;-66
2023/03/19 02:58:07;;;;;;;18.67;11.17;;;;;;;;;;5015563;28;20451;-66
2023/03/19 03:00:36;;;;;;;11.07;9.97;;;;;;;;;;5014668;28;20961;-67
2023/03/19 03:03:03;;;;;;;14.43;10.37;;;;;;;;;;4997814;28;20445;-66
2023/03/19 03:05:30;;;;;;;12.70;11.33;;;;;;;;;;4996190;28;20481;-66
2023/03/19 03:07:58;;;;;;;10.80;9.70;;;;;;;;;;4995569;28;20471;-67
2023/03/19 03:10:25;;;;;;;13.83;10.50;;;;;;;;;;4996588;28;20510;-66
2023/03/19 03:12:52;;;;;;;13.10;10.17;;;;;;;;;;4995707;28;20440;-66
2023/03/19 03:15:20;;;;;;;15.30;10.07;;;;;;;;;;4995758;28;20535;-66
2023/03/19 03:17:49;;;;;;;12.23;10.00;;;;;;;;;;4995870;28;20476;-66
2023/03/19 03:20:18;;;;;;;11.90;10.70;;;;;;;;;;4995304;28;20456;-67
2023/03/19 03:22:46;;;;;;;12.10;9.70;;;;;;;;;;4995559;28;20444;-66
2023/03/19 03:25:13;;;;;;;15.70;11.73;;;;;;;;;;4995665;28;20576;-65
2023/03/19 03:27:41;;;;;;;12.97;11.70;;;;;;;;;;4995009;28;20451;-66
2023/03/19 03:30:09;;;;;;;19.00;12.07;;;;;;;;;;4995560;28;20488;-66
2023/03/19 03:32:37;;;;;;;17.80;12.50;;;;;;;;;;4995375;28;20803;-67
2023/03/19 03:35:07;;;;;;;15.45;11.77;;;;;;;;;;4995127;28;21088;-67
2023/03/19 03:37:34;;;;;;;13.40;12.00;;;;;;;;;;4995668;28;20204;-67
2023/03/19 03:40:05;;;;;;;18.00;13.55;;;;;;;;;;4995474;28;20200;-67
2023/03/19 03:42:32;;;;;;;17.30;13.10;;;;;;;;;;4995563;28;20555;-67
2023/03/19 03:45:00;;;;;;;14.97;12.83;;;;;;;;;;4995113;28;20456;-66
2023/03/19 03:47:27;;;;;;;19.93;14.10;;;;;;;;;;4995176;28;20477;-67
2023/03/19 03:49:54;;;;;;;20.33;13.10;;;;;;;;;;4994960;28;20483;-66
2023/03/19 03:52:23;;;;;;;17.13;13.50;;;;;;;;;;4995096;28;20447;-67
2023/03/19 03:54:50;;;;;;;15.18;13.63;;;;;;;;;;4995040;28;20448;-68
2023/03/19 03:57:17;;;;;;;19.10;14.10;;;;;;;;;;4995038;28;20204;-67
2023/03/19 03:59:44;;;;;;;16.67;14.47;;;;;;;;;;4994896;28;20207;-66
2023/03/19 04:02:11;;;;;;;16.30;14.17;;;;;;;;;;4997985;28;20468;-67
2023/03/19 04:04:39;;;;;;;16.43;14.27;;;;;;;;;;4994427;28;20455;-66
2023/03/19 04:07:06;;;;;;;24.47;18.50;;;;;;;;;;4994417;28;20452;-67
2023/03/19 04:09:36;;;;;;;19.80;15.30;;;;;;;;;;4995616;28;20999;-66
2023/03/19 04:12:03;;;;;;;19.00;16.30;;;;;;;;;;4994151;28;20479;-66
2023/03/19 04:14:30;;;;;;;18.37;14.93;;;;;;;;;;4994404;28;20434;-67
2023/03/19 04:16:57;;;;;;;17.27;14.90;;;;;;;;;;4994583;28;20446;-66
2023/03/19 04:19:25;;;;;;;21.80;17.60;;;;;;;;;;4994036;28;20873;-66
2023/03/19 04:21:52;;;;;;;23.07;18.70;;;;;;;;;;4994085;28;20953;-66
2023/03/19 04:24:19;;;;;;;24.10;19.73;;;;;;;;;;4994064;28;20448;-66
2023/03/19 04:26:48;;;;;;;26.23;21.40;;;;;;;;;;4994580;28;20455;-66
2023/03/19 04:29:16;;;;;;;24.00;20.20;;;;;;;;;;4993920;28;20476;-66
2023/03/19 04:31:44;;;;;;;22.10;19.70;;;;;;;;;;5008857;28;20439;-66
2023/03/19 04:34:11;;;;;;;26.20;19.85;;;;;;;;;;5013595;28;20865;-67
2023/03/19 04:36:39;;;;;;;25.77;21.97;;;;;;;;;;5014021;28;20223;-66
2023/03/19 04:39:06;;;;;;;32.00;19.90;;;;;;;;;;5014239;28;20438;-67
2023/03/19 04:41:34;;;;;;;22.98;18.00;;;;;;;;;;5014147;28;20532;-66
2023/03/19 04:44:02;;;;;;;20.63;17.47;;;;;;;;;;5013827;28;20200;-66
2023/03/19 04:46:30;;;;;;;19.93;16.97;;;;;;;;;;5013380;28;20928;-66
2023/03/19 04:48:58;;;;;;;20.70;18.60;;;;;;;;;;5013534;28;20577;-66
2023/03/19 04:51:26;;;;;;;25.63;18.77;;;;;;;;;;5013785;28;20530;-66
2023/03/19 04:53:53;;;;;;;20.70;16.30;;;;;;;;;;5013180;28;20444;-67
2023/03/19 04:56:21;;;;;;;20.67;15.40;;;;;;;;;;5013456;28;20933;-67
2023/03/19 04:58:48;;;;;;;17.93;15.97;;;;;;;;;;5013865;28;20443;-67
2023/03/19 05:01:17;;;;;;;19.17;16.35;;;;;;;;;;5013512;28;20544;-67
2023/03/19 05:03:44;;;;;;;20.17;16.13;;;;;;;;;;5013356;28;20252;-66
2023/03/19 05:06:11;;;;;;;17.63;15.70;;;;;;;;;;5013228;28;20461;-66
2023/03/19 05:08:39;;;;;;;18.00;15.20;;;;;;;;;;5013244;28;20693;-67
2023/03/19 05:11:06;;;;;;;17.07;14.80;;;;;;;;;;5013427;28;20436;-66
2023/03/19 05:13:33;;;;;;;23.07;17.00;;;;;;;;;;5013087;28;20937;-66
2023/03/19 05:16:00;;;;;;;18.03;16.10;;;;;;;;;;5013337;28;20801;-66
2023/03/19 05:18:29;;;;;;;20.43;16.00;;;;;;;;;;5013666;28;20445;-66
2023/03/19 05:20:56;;;;;;;18.93;16.93;;;;;;;;;;5013141;28;21007;-66
2023/03/19 05:23:24;;;;;;;17.57;15.77;;;;;;;;;;5013696;28;20469;-66
2023/03/19 05:25:51;;;;;;;15.70;14.00;;;;;;;;;;5012879;28;20439;-66
2023/03/19 05:28:18;;;;;;;20.23;15.40;;;;;;;;;;5013339;28;20871;-66
2023/03/19 05:30:45;;;;;;;14.73;12.67;;;;;;;;;;5012895;28;20802;-67
2023/03/19 05:33:12;;;;;;;16.10;13.30;;;;;;;;;;5016411;28;20538;-66
2023/03/19 05:35:41;;;;;;;16.60;14.77;;;;;;;;;;5016518;28;20482;-66
2023/03/19 05:38:09;;;;;;;15.47;13.67;;;;;;;;;;5016630;28;20458;-67
2023/03/19 05:40:37;;;;;;;17.53;12.00;;;;;;;;;;5016983;28;20573;-66
2023/03/19 05:43:04;;;;;;;13.20;12.00;;;;;;;;;;5017032;28;20444;-66
2023/03/19 05:45:31;;;;;;;14.00;11.23;;;;;;;;;;5016850;28;20446;-66
2023/03/19 05:47:59;;;;;;;33.67;13.23;;;;;;;;;;5016768;28;20448;-66
2023/03/19 05:50:26;;;;;;;12.17;10.97;;;;;;;;;;5016630;28;20497;-66
2023/03/19 05:52:55;;;;;;;12.77;11.53;;;;;;;;;;5016804;28;20441;-66
2023/03/19 05:55:22;;;;;;;10.93;9.83;;;;;;;;;;5016713;28;20441;-66
2023/03/19 05:57:49;;;;;;;13.10;10.50;;;;;;;;;;5017054;28;20466;-66
2023/03/19 06:00:17;;;;;;;15.20;11.00;;;;;;;;;;5016564;28;20805;-66
2023/03/19 06:02:44;;;;;;;10.83;9.43;;;;;;;;;;5016490;28;20440;-66
2023/03/19 06:05:12;;;;;;;19.40;11.13;;;;;;;;;;5016613;28;20451;-66
2023/03/19 06:07:39;;;;;;;13.17;9.83;;;;;;;;;;5016597;28;20903;-66
2023/03/19 06:10:08;;;;;;;10.70;8.67;;;;;;;;;;5016356;28;20832;-66
2023/03/19 06:12:36;;;;;;;10.50;8.97;;;;;;;;;;5016787;28;20458;-66
2023/03/19 06:15:03;;;;;;;11.67;9.80;;;;;;;;;;5016571;28;20509;-68
2023/03/19 06:17:30;;;;;;;13.60;8.93;;;;;;;;;;5016610;28;20455;-67
2023/03/19 06:19:57;;;;;;;9.97;8.97;;;;;;;;;;5016748;28;20440;-66
2023/03/19 06:22:24;;;;;;;9.20;7.77;;;;;;;;;;5014116;28;20486;-67
2023/03/19 06:24:52;;;;;;;12.33;7.93;;;;;;;;;;5015585;28;21015;-67
2023/03/19 06:27:20;;;;;;;8.90;8.00;;;;;;;;;;5015623;28;20449;-67
2023/03/19 06:29:47;;;;;;;8.63;7.73;;;;;;;;;;5016171;28;20839;-67
2023/03/19 06:32:15;;;;;;;9.50;8.00;;;;;;;;;;5015737;28;20456;-68
2023/03/19 06:34:42;;;;;;;16.50;8.17;;;;;;;;;;5015780;28;20487;-68
2023/03/19 06:37:09;;;;;;;10.00;8.60;;;;;;;;;;5015830;28;20535;-69
2023/03/19 06:39:37;;;;;;;9.33;7.60;;;;;;;;;;5015826;28;20450;-67
2023/03/19 06:42:04;;;;;;;9.70;7.67;;;;;;;;;;5015482;28;20538;-67
2023/03/19 06:44:33;;;;;;;10.27;8.17;;;;;;;;;;5015391;28;20494;-67
2023/03/19 06:47:00;;;;;;;8.57;7.67;;;;;;;;;;5015908;28;20811;-67
2023/03/19 06:49:27;;;;;;;8.90;7.37;;;;;;;;;;5015863;28;20479;-67
2023/03/19 06:51:54;;;;;;;8.90;7.20;;;;;;;;;;5015645;28;20450;-67
2023/03/19 06:54:22;;;;;;;8.23;7.43;;;;;;;;;;5015475;28;20776;-66
2023/03/19 06:56:49;;;;;;;11.40;6.83;;;;;;;;;;5015548;28;20465;-67
2023/03/19 06:59:16;;;;;;;9.80;7.63;;;;;;;;;;5015849;28;20443;-67
2023/03/19 07:01:45;;;;;;;8.40;6.10;;;;;;;;;;5015316;28;20446;-68
2023/03/19 07:04:12;;;;;;;7.90;7.20;;;;;;;;;;5015527;28;20444;-68
2023/03/19 07:06:40;;;;;;;9.37;6.90;;;;;;;;;;5015689;28;20461;-68
2023/03/19 07:09:07;;;;;;;8.60;6.63;;;;;;;;;;5015011;28;20445;-67
2023/03/19 07:11:34;;;;;;;7.73;6.67;;;;;;;;;;5015170;28;20447;-68
2023/03/19 07:14:01;;;;;;;6.97;6.37;;;;;;;;;;5014881;28;20446;-67
2023/03/19 07:16:29;;;;;;;9.30;7.80;;;;;;;;;;5014840;28;20960;-73
2023/03/19 07:18:57;;;;;;;10.43;6.87;;;;;;;;;;5015549;28;20446;-68
2023/03/19 07:21:24;;;;;;;8.70;7.80;;;;;;;;;;5014758;28;20446;-68
2023/03/19 07:23:51;;;;;;;10.87;6.80;;;;;;;;;;5014697;28;20452;-68
2023/03/19 07:26:19;;;;;;;7.93;7.20;;;;;;;;;;5014595;28;20444;-68
2023/03/19 07:28:47;;;;;;;7.90;7.20;;;;;;;;;;5014695;28;20530;-68
2023/03/19 07:31:15;;;;;;;9.00;8.00;;;;;;;;;;5014798;28;20537;-68
2023/03/19 07:33:42;;;;;;;10.03;8.33;;;;;;;;;;5014524;28;20450;-68
2023/03/19 07:36:11;;;;;;;14.60;8.77;;;;;;;;;;5014189;28;20564;-69
2023/03/19 07:38:38;;;;;;;13.80;8.27;;;;;;;;;;5014909;28;20463;-68
2023/03/19 07:41:06;;;;;;;13.77;9.30;;;;;;;;;;5014960;28;20451;-68
2023/03/19 07:43:33;;;;;;;10.07;8.00;;;;;;;;;;5014396;28;20935;-68
2023/03/19 07:46:00;;;;;;;12.57;8.27;;;;;;;;;;5014574;28;20449;-68
2023/03/19 07:48:28;;;;;;;11.00;8.00;;;;;;;;;;5014817;28;20439;-68
2023/03/19 07:50:55;;;;;;;8.93;7.43;;;;;;;;;;5014324;28;20487;-68
2023/03/19 07:53:23;;;;;;;8.93;7.80;;;;;;;;;;5014606;28;20442;-68
2023/03/19 07:55:51;;;;;;;8.40;7.60;;;;;;;;;;5014076;28;20449;-68
2023/03/19 07:58:18;;;;;;;13.17;8.67;;;;;;;;;;5014399;28;20467;-68
2023/03/19 08:00:45;;;;;;;9.43;7.43;;;;;;;;;;5014308;28;20531;-67
2023/03/19 08:03:12;;;;;;;16.93;7.60;;;;;;;;;;5014602;28;20447;-68
2023/03/19 08:05:40;;;;;;;10.10;7.70;;;;;;;;;;5013978;28;20792;-68
2023/03/19 08:08:07;;;;;;;12.47;8.03;;;;;;;;;;5014406;28;20445;-68
2023/03/19 08:10:36;;;;;;;10.47;8.07;;;;;;;;;;5013848;28;20477;-68
2023/03/19 08:13:03;;;;;;;8.53;7.60;;;;;;;;;;5014030;28;20492;-68
2023/03/19 08:15:31;;;;;;;7.23;6.53;;;;;;;;;;5014239;28;20535;-68
2023/03/19 08:17:58;;;;;;;7.67;6.87;;;;;;;;;;5014127;28;20452;-68
2023/03/19 08:20:26;;;;;;;10.50;7.30;;;;;;;;;;5014159;28;20451;-68
2023/03/19 08:22:53;;;;;;;8.03;7.23;;;;;;;;;;5014052;28;20454;-69
2023/03/19 08:25:20;;;;;;;9.43;7.47;;;;;;;;;;5014050;28;20559;-68
2023/03/19 08:27:49;;;;;;;14.10;9.33;;;;;;;;;;5014137;28;20450;-68
2023/03/19 08:30:17;;;;;;;10.83;9.63;;;;;;;;;;5013816;28;20933;-68
2023/03/19 08:32:44;;;;;;;12.27;8.23;;;;;;;;;;5013717;28;20449;-69
2023/03/19 08:35:12;;;;;;;11.23;8.60;;;;;;;;;;5013760;28;20476;-68
2023/03/19 08:37:40;;;;;;;12.60;9.00;;;;;;;;;;5013665;28;20844;-68
2023/03/19 08:40:07;;;;;;;11.63;7.83;;;;;;;;;;5013862;28;20455;-69
2023/03/19 08:42:37;;;;;;;9.30;8.37;;;;;;;;;;5013426;28;20449;-68
2023/03/19 08:45:06;;;;;;;8.90;8.00;;;;;;;;;;5013904;28;20437;-69
2023/03/19 08:47:34;;;;;;;11.50;8.23;;;;;;;;;;5013917;28;20504;-68
2023/03/19 08:50:01;;;;;;;10.50;8.30;;;;;;;;;;5013351;28;20563;-68
2023/03/19 08:52:28;;;;;;;9.33;8.10;;;;;;;;;;5013600;28;20868;-68
2023/03/19 08:54:55;;;;;;;11.83;8.63;;;;;;;;;;5013490;28;20473;-68
2023/03/19 08:57:22;;;;;;;13.13;9.33;;;;;;;;;;5013266;28;20456;-68
2023/03/19 08:59:50;;;;;;;12.80;10.30;;;;;;;;;;5013657;28;20445;-68
2023/03/19 09:02:18;;;;;;;13.77;9.73;;;;;;;;;;5013115;28;20538;-69
2023/03/19 09:04:45;;;;;;;14.57;10.77;;;;;;;;;;5013369;28;20453;-69
2023/03/19 09:07:14;;;;;;;17.67;11.03;;;;;;;;;;5017124;28;20446;-68
2023/03/19 09:09:42;;;;;;;16.23;12.40;;;;;;;;;;5017316;28;20948;-69
2023/03/19 09:12:10;;;;;;;17.60;13.40;;;;;;;;;;5017422;28;20447;-69
2023/03/19 09:14:38;;;;;;;16.60;13.00;;;;;;;;;;5017809;28;20448;-69
2023/03/19 09:17:05;;;;;;;17.37;14.50;;;;;;;;;;5017768;28;20503;-68
2023/03/19 09:19:34;;;;;;;19.67;14.70;;;;;;;;;;5017475;28;20506;-69
2023/03/19 09:22:01;;;;;;;16.50;11.40;;;;;;;;;;5017243;28;20446;-69
2023/03/19 09:24:29;;;;;;;13.63;10.50;;;;;;;;;;5017129;28;20934;-68
2023/03/19 09:26:56;;;;;;;11.97;10.60;;;;;;;;;;5017188;28;20949;-68
2023/03/19 09:29:23;;;;;;;10.00;9.00;;;;;;;;;;5017399;28;20444;-68
2023/03/19 09:31:50;;;;;;;13.73;10.37;;;;;;;;;;5016972;28;20998;-68
2023/03/19 09:34:17;;;;;;;16.83;12.17;;;;;;;;;;5016630;28;20477;-68
2023/03/19 09:36:46;;;;;;;18.33;12.27;;;;;;;;;;5017238;28;20419;-69
2023/03/19 09:39:13;;;;;;;16.47;12.40;;;;;;;;;;5017116;28;20898;-68
2023/03/19 09:41:45;;;;;;;16.37;12.10;;;;;;;;;;5016832;28;20942;-68
2023/03/19 09:44:13;;;;;;;15.57;12.20;;;;;;;;;;5017176;28;20900;-68
2023/03/19 09:46:45;;;;;;;16.17;12.80;;;;;;;;;;5017004;28;20456;-68
2023/03/19 09:49:15;;;;;;;18.20;15.23;;;;;;;;;;5016985;28;20433;-68
2023/03/19 09:51:45;;;;;;;17.50;13.73;;;;;;;;;;5017146;28;20989;-68
2023/03/19 09:54:20;;;;;;;17.40;13.93;;;;;;;;;;5017339;28;20434;-68
2023/03/19 09:56:47;;;;;;;19.17;15.03;;;;;;;;;;5017507;28;20443;-68
2023/03/19 09:59:15;;;;;;;23.30;16.87;;;;;;;;;;5016824;28;20441;-68
2023/03/19 10:01:44;;;;;;;22.60;16.07;;;;;;;;;;5016706;28;20446;-68
2023/03/19 10:04:29;;;;;;;20.03;13.97;;;;;;;;;;5016249;28;20464;-69
2023/03/19 10:06:59;;;;;;;17.50;12.60;;;;;;;;;;5016781;28;20432;-68
2023/03/19 10:09:34;;;;;;;20.83;15.70;;;;;;;;;;5016509;28;20433;-68
2023/03/19 10:12:10;;;;;;;20.33;15.83;;;;;;;;;;5017021;28;20933;-68
2023/03/19 10:14:46;;;;;;;20.97;16.77;;;;;;;;;;5016876;28;20465;-68
2023/03/19 10:17:16;;;;;;;26.00;18.50;;;;;;;;;;5015645;28;20978;-68
2023/03/19 10:19:45;;;;;;;26.03;18.90;;;;;;;;;;5016273;28;20939;-68
2023/03/19 10:22:15;;;;;;;25.70;17.60;;;;;;;;;;5016928;28;20452;-68
2023/03/19 10:24:44;;;;;;;24.90;18.60;;;;;;;;;;5016382;28;20466;-69
2023/03/19 10:27:14;;;;;;;25.80;21.00;;;;;;;;;;5015918;28;20549;-68
2023/03/19 10:29:42;;;;;;;24.67;20.50;;;;;;;;;;5016338;28;20560;-68
2023/03/19 10:32:15;;;;;;;26.03;21.13;;;;;;;;;;5016408;28;20565;-68
2023/03/19 10:34:43;;;;;;;29.70;21.73;;;;;;;;;;5015571;28;20470;-69
2023/03/19 10:37:15;;;;;;;31.70;22.10;;;;;;;;;;5015795;28;20439;-68
2023/03/19 10:39:45;;;;;;;30.03;22.20;;;;;;;;;;5016090;28;20433;-68
2023/03/19 10:42:28;;;;;;;27.80;21.70;;;;;;;;;;5015699;28;20454;-68
2023/03/19 10:44:59;;;;;;;27.27;21.80;;;;;;;;;;5016325;28;20532;-68
2023/03/19 10:47:27;;;;;;;27.20;19.63;;;;;;;;;;5016766;28;20445;-69
2023/03/19 10:49:56;;;;;;;26.77;20.57;;;;;;;;;;5014220;28;20457;-68
2023/03/19 10:52:24;;;;;;;28.10;20.17;;;;;;;;;;5015182;28;20478;-68
2023/03/19 10:54:57;;;;;;;30.60;20.50;;;;;;;;;;5015224;28;20449;-68
2023/03/19 10:57:26;;;;;;;31.13;19.70;;;;;;;;;;5015641;28;20449;-70
2023/03/19 10:59:54;;;;;;;26.80;20.50;;;;;;;;;;5015252;28;20451;-68
2023/03/19 11:02:22;;;;;;;23.00;19.33;;;;;;;;;;5015611;28;20488;-68
2023/03/19 11:04:50;;;;;;;23.63;19.00;;;;;;;;;;5015520;28;20478;-69
2023/03/19 11:07:20;;;;;;;18.87;15.77;;;;;;;;;;5015619;28;20437;-68
2023/03/19 11:09:48;;;;;;;20.30;15.00;;;;;;;;;;5014784;28;20454;-69
2023/03/19 11:12:20;;;;;;;18.90;15.00;;;;;;;;;;5015375;28;20493;-68
2023/03/19 11:14:48;;;;;;;21.50;16.50;;;;;;;;;;5015202;28;20441;-69
2023/03/19 11:17:20;;;;;;;23.50;18.57;;;;;;;;;;5015483;28;20810;-69
2023/03/19 11:19:51;;;;;;;22.37;16.30;;;;;;;;;;5009489;28;20447;-69
2023/03/19 11:22:19;;;;;;;18.57;16.50;;;;;;;;;;4995871;28;20440;-69
2023/03/19 11:24:51;;;;;;;19.57;15.00;;;;;;;;;;4995554;28;20514;-68
2023/03/19 11:27:20;;;;;;;19.07;15.00;;;;;;;;;;4995389;28;20439;-68
2023/03/19 11:29:47;;;;;;;17.10;15.30;;;;;;;;;;4994304;28;20472;-69
2023/03/19 11:32:23;;;;;;;15.73;14.00;;;;;;;;;;4995343;28;20490;-68
2023/03/19 11:34:53;;;;;;;16.50;14.80;;;;;;;;;;4995154;28;20482;-69
2023/03/19 11:37:27;;;;;;;17.27;15.57;;;;;;;;;;4995058;28;20478;-69
2023/03/19 11:39:59;;;;;;;16.60;14.93;;;;;;;;;;4994908;28;20464;-69
2023/03/19 11:42:39;;;;;;;18.07;16.23;;;;;;;;;;4995058;28;20754;-68
2023/03/19 11:45:12;;;;;;;16.97;15.37;;;;;;;;;;4995495;28;20498;-68
2023/03/19 11:47:44;;;;;;;16.40;14.70;;;;;;;;;;4995145;28;20482;-69
2023/03/19 11:50:18;;;;;;;15.80;14.20;;;;;;;;;;4995047;28;20456;-69
2023/03/19 11:52:54;;;;;;;16.47;14.00;;;;;;;;;;4994729;28;20475;-69
2023/03/19 11:55:23;;;;;;;18.07;16.27;;;;;;;;;;4995106;28;20801;-69
2023/03/19 11:57:58;;;;;;;17.27;15.47;;;;;;;;;;4995020;28;20513;-68
2023/03/19 12:00:30;;;;;;;17.70;15.63;;;;;;;;;;4994495;28;20851;-68
2023/03/19 12:03:30;;;;;;;18.10;16.27;;;;;;;;;;4994869;28;20424;-68
2023/03/19 12:06:00;;;;;;;18.60;16.80;;;;;;;;;;4934397;29;20540;-68
2023/03/19 12:08:32;;;;;;;17.97;15.67;;;;;;;;;;4934571;29;20464;-69
2023/03/19 12:11:02;;;;;;;18.63;16.77;;;;;;;;;;4964444;28;20483;-69
2023/03/19 12:13:36;;;;;;;16.47;14.93;;;;;;;;;;4994481;28;20543;-69
2023/03/19 12:16:07;;;;;;;16.67;14.63;;;;;;;;;;4994613;28;20476;-69
2023/03/19 12:18:46;;;;;;;17.27;15.57;;;;;;;;;;4994684;28;20431;-69
2023/03/19 12:21:22;;;;;;;17.33;15.73;;;;;;;;;;4994453;28;20538;-69
2023/03/19 12:23:58;;;;;;;19.33;17.50;;;;;;;;;;4994049;28;20436;-69
2023/03/19 12:26:30;;;;;;;17.40;15.67;;;;;;;;;;4994351;28;20514;-69
2023/03/19 12:29:03;;;;;;;17.33;15.63;;;;;;;;;;4994456;28;20428;-68
2023/03/19 12:31:51;;;;;;;20.17;17.60;;;;;;;;;;4993821;28;20485;-69
2023/03/19 12:34:28;;;;;;;20.40;18.40;;;;;;;;;;4989441;28;20478;-69
2023/03/19 12:36:58;;;;;;;20.97;18.87;;;;;;;;;;4994486;28;20781;-69
2023/03/19 12:39:26;;;;;;;21.80;19.47;;;;;;;;;;4994491;28;20455;-70
2023/03/19 12:41:55;;;;;;;22.63;20.30;;;;;;;;;;4993351;28;20455;-71
2023/03/19 12:44:27;;;;;;;22.10;19.80;;;;;;;;;;4993830;28;20519;-69
2023/03/19 12:46:56;;;;;;;21.30;19.10;;;;;;;;;;4994204;28;20435;-69
2023/03/19 12:49:25;;;;;;;22.00;19.70;;;;;;;;;;4993617;28;20447;-70
2023/03/19 12:51:55;;;;;;;22.27;19.87;;;;;;;;;;4993821;28;20498;-69
2023/03/19 12:54:25;;;;;;;22.63;20.23;;;;;;;;;;4993690;28;20451;-68
2023/03/19 12:56:55;;;;;;;21.80;19.50;;;;;;;;;;4993813;28;20813;-69
2023/03/19 12:59:29;;;;;;;21.90;19.70;;;;;;;;;;4994404;28;20543;-69
2023/03/19 13:02:00;;;;;;;21.70;19.37;;;;;;;;;;4994204;28;20493;-70
2023/03/19 13:04:29;;;;;;;23.50;20.80;;;;;;;;;;4994153;28;20506;-69
2023/03/19 13:06:59;;;;;;;23.03;20.43;;;;;;;;;;4994179;28;20812;-69
2023/03/19 13:09:29;;;;;;;23.60;21.17;;;;;;;;;;4993721;28;20458;-69
2023/03/19 13:11:59;;;;;;;22.43;20.03;;;;;;;;;;4994020;28;20511;-69
2023/03/19 13:14:30;;;;;;;21.90;19.60;;;;;;;;;;4994042;28;20436;-69
2023/03/19 13:17:00;;;;;;;17.60;15.63;;;;;;;;;;4993553;28;20944;-69
2023/03/19 13:19:30;;;;;;;21.03;18.90;;;;;;;;;;4994172;28;20519;-69
2023/03/19 13:21:59;;;;;;;15.90;13.20;;;;;;;;;;4993469;28;20456;-69
2023/03/19 13:24:28;;;;;;;12.03;10.83;;;;;;;;;;4993914;28;20900;-69
2023/03/19 13:26:56;;;;;;;9.90;8.90;;;;;;;;;;4993834;28;20522;-69
2023/03/19 13:29:24;;;;;;;10.67;9.60;;;;;;;;;;4993822;28;20477;-69
2023/03/19 13:31:53;;;;;;;10.27;9.37;;;;;;;;;;4993965;28;20515;-69
2023/03/19 13:34:22;;;;;;;11.33;10.13;;;;;;;;;;4993455;28;20523;-69
2023/03/19 13:36:53;;;;;;;10.40;9.37;;;;;;;;;;4993807;28;20864;-69
2023/03/19 13:39:22;;;;;;;10.83;9.80;;;;;;;;;;4993872;28;20436;-68
2023/03/19 13:41:54;;;;;;;10.70;9.70;;;;;;;;;;4993260;28;20550;-69
2023/03/19 13:44:34;;;;;;;10.50;9.40;;;;;;;;;;4993797;28;20532;-68
2023/03/19 13:47:04;;;;;;;11.17;10.07;;;;;;;;;;4993543;28;20470;-68
2023/03/19 13:49:34;;;;;;;11.47;9.33;;;;;;;;;;4993562;28;20451;-68
2023/03/19 13:52:16;;;;;;;9.93;8.97;;;;;;;;;;4993384;28;20542;-69
2023/03/19 13:54:45;;;;;;;11.80;10.70;;;;;;;;;;4984853;28;20613;-69
2023/03/19 13:57:22;;;;;;;13.87;10.23;;;;;;;;;;4996769;28;20929;-68
2023/03/19 13:59:50;;;;;;;11.57;10.37;;;;;;;;;;5015503;28;20449;-68
2023/03/19 14:02:36;;;;;;;11.10;10.03;;;;;;;;;;5016581;28;20445;-69
2023/03/19 14:05:09;;;;;;;10.33;9.23;;;;;;;;;;5016659;28;20465;-68
2023/03/19 14:07:38;;;;;;;9.23;7.67;;;;;;;;;;5016664;28;20785;-68
2023/03/19 14:10:08;;;;;;;10.73;9.67;;;;;;;;;;5016211;28;20944;-69
2023/03/19 14:12:37;;;;;;;10.57;9.50;;;;;;;;;;5016486;28;20823;-69
2023/03/19 14:15:15;;;;;;;11.27;10.10;;;;;;;;;;5016302;28;20450;-69
2023/03/19 14:17:45;;;;;;;10.50;9.50;;;;;;;;;;5015639;28;20438;-69
2023/03/19 14:20:25;;;;;;;10.23;9.17;;;;;;;;;;5016717;28;20442;-69
2023/03/19 14:22:56;;;;;;;12.73;11.30;;;;;;;;;;5016362;28;20443;-68
2023/03/19 14:25:25;;;;;;;11.50;10.40;;;;;;;;;;5016198;28;20465;-68
2023/03/19 14:27:54;;;;;;;12.03;10.80;;;;;;;;;;5015616;28;20439;-68
2023/03/19 14:30:27;;;;;;;13.10;10.93;;;;;;;;;;5015778;28;20442;-68